Time;durP1;ratioP1;P1;durP2;ratioP2;P2;SDS_P1;SDS_P2;PMS_P1;PMS_P2;Temp;Humidity;BMP_temperature;BMP_pressure;BME280_temperature;BME280_humidity;BME280_pressure;Samples;Min_cycle;Max_cycle;Signal;HPM_P1;HPM_P2
2022/07/11 00:02:17;;;;;;;6.32;5.72;;;;;;;16.40;78.67;96668.88;4871006;29;20109;-68
2022/07/11 00:04:45;;;;;;;6.65;6.03;;;;;;;16.96;79.92;96723.31;4871313;29;20056;-75
2022/07/11 00:07:14;;;;;;;6.35;5.75;;;;;;;16.86;81.57;96712.28;4871089;29;20071;-75
2022/07/11 00:09:44;;;;;;;10.20;6.13;;;;;;;15.95;80.49;96591.94;4854224;29;20540;-74
2022/07/11 00:12:13;;;;;;;8.18;5.97;;;;;;;16.66;80.98;96722.53;4870581;29;20064;-68
2022/07/11 00:14:42;;;;;;;6.50;5.88;;;;;;;16.67;80.11;96712.91;4870607;29;20814;-69
2022/07/11 00:17:10;;;;;;;6.50;6.00;;;;;;;16.71;79.26;96719.28;4870675;29;20064;-67
2022/07/11 00:19:37;;;;;;;7.22;6.38;;;;;;;16.78;80.61;96716.38;4871102;29;20150;-75
2022/07/11 00:22:05;;;;;;;6.55;5.93;;;;;;;16.75;80.52;96711.63;4854701;29;20064;-67
2022/07/11 00:24:33;;;;;;;7.20;6.25;;;;;;;16.82;80.00;96717.16;4854354;29;20064;-75
2022/07/11 00:27:00;;;;;;;6.47;5.80;;;;;;;15.81;80.34;96592.09;4870712;29;20156;-73
2022/07/11 00:29:28;;;;;;;6.55;5.95;;;;;;;15.97;81.53;96650.97;4870955;29;20545;-75
2022/07/11 00:31:57;;;;;;;6.03;5.45;;;;;;;15.82;81.91;96627.19;4870987;29;20057;-74
2022/07/11 00:34:24;;;;;;;6.47;5.82;;;;;;;16.45;80.72;96721.53;4870812;29;20072;-67
2022/07/11 00:36:52;;;;;;;5.93;5.43;;;;;;;16.30;81.27;96731.28;4874579;29;20064;-74
2022/07/11 00:39:19;;;;;;;5.53;5.13;;;;;;;16.29;81.62;96732.50;4857468;29;20542;-67
2022/07/11 00:41:45;;;;;;;6.53;5.78;;;;;;;16.23;81.22;96734.13;4874693;29;20049;-75
2022/07/11 00:44:13;;;;;;;5.68;5.18;;;;;;;16.29;81.44;96735.28;4874767;29;20572;-68
2022/07/11 00:46:40;;;;;;;6.00;5.07;;;;;;;16.32;81.53;96740.06;4857818;29;20063;-67
2022/07/11 00:49:08;;;;;;;6.35;5.45;;;;;;;16.31;80.87;96752.41;4857726;29;20072;-75
2022/07/11 00:51:38;;;;;;;6.57;5.93;;;;;;;16.28;82.04;96750.47;4874568;29;20065;-67
2022/07/11 00:54:08;;;;;;;8.35;5.28;;;;;;;16.22;82.29;96746.53;4875010;29;20053;-67
2022/07/11 00:56:35;;;;;;;5.93;5.32;;;;;;;16.24;82.87;96732.94;4874121;29;20064;-74
2022/07/11 00:59:02;;;;;;;6.00;5.50;;;;;;;16.21;82.33;96736.56;4873941;29;20071;-74
2022/07/11 01:01:32;;;;;;;6.68;5.90;;;;;;;16.15;83.77;96738.22;4874099;29;20077;-67
2022/07/11 01:03:59;;;;;;;6.13;5.53;;;;;;;16.02;83.81;96719.59;4858240;29;20065;-72
2022/07/11 01:06:26;;;;;;;6.43;5.45;;;;;;;16.12;84.13;96713.09;4857236;29;20545;-68
2022/07/11 01:08:53;;;;;;;6.18;5.60;;;;;;;16.05;83.00;96719.56;4874127;29;20057;-68
2022/07/11 01:11:20;;;;;;;6.07;5.55;;;;;;;15.19;82.83;96616.56;4874101;29;20144;-68
2022/07/11 01:13:47;;;;;;;7.22;6.03;;;;;;;15.82;83.56;96715.78;4873921;29;20093;-68
2022/07/11 01:16:19;;;;;;;6.53;5.50;;;;;;;15.70;84.68;96731.03;4873695;29;20057;-68
2022/07/11 01:18:48;;;;;;;5.88;5.38;;;;;;;15.66;84.63;96724.69;4873613;29;20536;-67
2022/07/11 01:21:22;;;;;;;6.55;5.18;;;;;;;15.59;84.36;96727.53;4857184;29;20061;-68
2022/07/11 01:23:50;;;;;;;5.38;4.93;;;;;;;15.49;84.78;96720.03;4873724;29;20073;-67
2022/07/11 01:26:18;;;;;;;6.47;5.50;;;;;;;14.65;84.63;96603.41;4857850;29;20072;-67
2022/07/11 01:28:46;;;;;;;5.78;5.28;;;;;;;15.43;84.36;96740.44;4854859;29;20578;-75
2022/07/11 01:31:13;;;;;;;5.35;4.90;;;;;;;15.36;85.55;96726.47;4855380;29;20506;-75
2022/07/11 01:33:41;;;;;;;8.23;5.05;;;;;;;15.34;84.87;96735.25;4855339;29;20102;-73
2022/07/11 01:36:08;;;;;;;9.25;4.95;;;;;;;14.90;87.16;96754.63;4855226;29;20525;-75
2022/07/11 01:38:36;;;;;;;5.70;5.20;;;;;;;14.44;88.25;96623.03;4855075;29;20061;-67
2022/07/11 01:41:03;;;;;;;5.43;4.93;;;;;;;15.24;86.63;96741.69;4855028;29;20066;-68
2022/07/11 01:43:30;;;;;;;11.25;5.18;;;;;;;15.28;84.33;96728.53;4854972;29;20243;-68
2022/07/11 01:45:57;;;;;;;10.23;5.20;;;;;;;14.53;90.19;96729.28;4838242;29;20101;-74
2022/07/11 01:48:25;;;;;;;12.95;6.18;;;;;;;14.15;89.66;96635.44;4854518;29;20299;-73
2022/07/11 01:50:52;;;;;;;11.20;5.60;;;;;;;14.99;89.09;96729.88;4855145;29;20060;-67
2022/07/11 01:53:19;;;;;;;10.55;5.95;;;;;;;14.98;89.22;96728.31;4854805;29;20092;-75
2022/07/11 01:55:46;;;;;;;7.45;5.47;;;;;;;15.12;87.78;96728.22;4854142;29;20525;-74
2022/07/11 02:06:51;;;;;;;11.52;5.30;;;;;;;14.75;88.32;96748.31;4796419;29;20151;-67
2022/07/11 02:09:29;;;;;;;9.02;5.10;;;;;;;14.84;88.02;96753.47;4850646;29;20068;-67
2022/07/11 02:11:56;;;;;;;7.68;5.07;;;;;;;14.97;87.48;96743.44;4872928;29;20120;-75
2022/07/11 02:14:23;;;;;;;5.10;4.60;;;;;;;15.06;87.62;96752.19;4872627;29;20521;-68
2022/07/11 02:16:50;;;;;;;5.43;4.93;;;;;;;14.79;87.08;96703.69;4872769;29;20060;-67
2022/07/11 02:19:17;;;;;;;10.65;5.15;;;;;;;15.16;86.44;96742.94;4873338;29;20069;-67
2022/07/11 02:21:44;;;;;;;5.35;4.35;;;;;;;15.04;85.97;96766.53;4872511;29;20063;-67
2022/07/11 02:24:11;;;;;;;7.38;5.10;;;;;;;14.98;86.86;96756.19;4856069;29;20075;-67
2022/07/11 02:26:38;;;;;;;5.88;5.15;;;;;;;14.97;86.58;96765.75;4872311;29;20140;-68
2022/07/11 02:29:05;;;;;;;5.82;4.80;;;;;;;14.96;86.53;96753.00;4872407;29;20069;-68
2022/07/11 02:31:31;;;;;;;7.38;4.47;;;;;;;14.92;85.87;96768.97;4872427;29;20052;-75
2022/07/11 02:33:59;;;;;;;5.22;4.72;;;;;;;14.80;86.63;96833.53;4856052;29;20060;-75
2022/07/11 02:36:25;;;;;;;4.70;4.30;;;;;;;14.31;87.10;96691.53;4855534;29;20064;-70
2022/07/11 02:38:52;;;;;;;5.45;4.95;;;;;;;14.78;86.15;96782.97;4872284;29;20061;-72
2022/07/11 02:41:19;;;;;;;6.45;5.20;;;;;;;14.53;88.76;96785.03;4871969;29;20114;-74
2022/07/11 02:43:46;;;;;;;7.38;4.97;;;;;;;14.58;89.43;96784.63;4872102;29;20057;-68
2022/07/11 02:46:13;;;;;;;5.40;4.90;;;;;;;14.62;89.21;96777.06;4871967;29;20536;-74
2022/07/11 02:48:40;;;;;;;5.13;4.60;;;;;;;14.66;88.93;96787.00;4872713;29;20525;-68
2022/07/11 02:51:07;;;;;;;7.15;4.80;;;;;;;14.66;88.51;96766.69;4872277;29;20068;-74
2022/07/11 02:53:34;;;;;;;5.55;4.60;;;;;;;14.64;88.09;96774.66;4855432;29;20413;-67
2022/07/11 02:56:01;;;;;;;5.82;4.75;;;;;;;14.73;87.46;96783.41;4855477;29;20265;-75
2022/07/11 02:58:28;;;;;;;5.47;4.93;;;;;;;14.09;87.34;96681.63;4871317;29;20539;-75
2022/07/11 03:00:55;;;;;;;5.70;4.65;;;;;;;14.77;87.26;96790.53;4871825;29;20144;-68
2022/07/11 03:03:22;;;;;;;6.05;4.78;;;;;;;14.78;86.06;96783.75;4855278;29;20121;-72
2022/07/11 03:05:49;;;;;;;6.32;4.20;;;;;;;14.77;85.56;96792.53;4871991;29;20056;-67
2022/07/11 03:08:16;;;;;;;5.28;4.78;;;;;;;14.75;85.44;96792.13;4871351;29;20482;-76
2022/07/11 03:10:43;;;;;;;7.13;4.82;;;;;;;14.79;85.73;96792.94;4855422;29;20634;-74
2022/07/11 03:13:10;;;;;;;4.97;4.18;;;;;;;14.78;85.94;96796.91;4855281;29;20069;-67
2022/07/11 03:15:37;;;;;;;6.00;4.15;;;;;;;14.84;85.38;96823.19;4871337;29;20064;-73
2022/07/11 03:18:03;;;;;;;7.35;4.40;;;;;;;14.58;86.14;96765.13;4871650;29;20065;-67
2022/07/11 03:20:31;;;;;;;4.85;4.25;;;;;;;14.35;86.18;96817.72;4854945;29;20468;-74
2022/07/11 03:22:58;;;;;;;5.05;4.32;;;;;;;13.49;89.18;96718.69;4855250;29;20065;-74
2022/07/11 03:25:25;;;;;;;6.60;5.15;;;;;;;14.42;88.58;96800.97;4864538;29;20064;-67
2022/07/11 03:27:51;;;;;;;6.25;4.53;;;;;;;14.62;87.36;96804.94;4836537;29;20550;-67
2022/07/11 03:30:18;;;;;;;4.95;4.50;;;;;;;14.76;86.93;96810.47;4852498;29;20623;-67
2022/07/11 03:32:45;;;;;;;10.43;6.50;;;;;;;14.74;86.39;96807.28;4852680;29;20066;-67
2022/07/11 03:37:58;;;;;;;7.57;4.47;;;;;;;15.03;84.48;96803.19;4852929;29;20441;-75
2022/07/11 03:40:25;;;;;;;5.90;3.90;;;;;;;14.38;84.21;96697.09;4852686;29;20064;-68
2022/07/11 03:42:51;;;;;;;4.07;3.78;;;;;;;13.94;84.30;96635.53;4852920;29;20521;-73
2022/07/11 03:45:18;;;;;;;4.32;3.92;;;;;;;14.89;84.72;96808.84;4852715;29;20060;-74
2022/07/11 03:47:47;;;;;;;4.53;4.13;;;;;;;14.94;83.78;96811.19;4835903;29;20069;-73
2022/07/11 03:50:14;;;;;;;4.22;3.80;;;;;;;14.80;83.27;96783.34;4852779;29;20069;-74
2022/07/11 03:52:41;;;;;;;4.25;3.90;;;;;;;15.08;82.94;96805.53;4852644;29;20096;-68
2022/07/11 03:55:08;;;;;;;4.20;3.80;;;;;;;14.85;82.70;96755.06;4852496;29;20073;-75
2022/07/11 03:57:36;;;;;;;3.70;3.40;;;;;;;15.39;82.63;96810.22;4852184;29;20137;-68
2022/07/11 04:00:05;;;;;;;4.00;3.70;;;;;;;15.53;81.69;96798.97;4852102;29;20061;-67
2022/07/11 04:02:32;;;;;;;4.50;3.60;;;;;;;15.51;81.95;96801.38;4835933;29;20426;-67
2022/07/11 04:05:00;;;;;;;3.85;3.55;;;;;;;15.64;80.87;96807.28;4852374;29;20054;-75
2022/07/11 04:07:30;;;;;;;4.95;4.20;;;;;;;15.68;80.86;96797.66;4852043;29;20065;-68
2022/07/11 04:09:57;;;;;;;4.57;4.10;;;;;;;15.10;80.37;96688.78;4851717;29;20065;-74
2022/07/11 04:12:24;;;;;;;4.28;3.97;;;;;;;15.89;80.53;96803.09;4852448;29;20069;-76
2022/07/11 04:14:51;;;;;;;4.55;4.15;;;;;;;16.05;79.43;96814.56;4852395;29;20073;-68
2022/07/11 04:17:19;;;;;;;5.05;4.55;;;;;;;16.15;78.86;96810.91;4852156;29;20066;-68
2022/07/11 04:19:46;;;;;;;4.03;3.20;;;;;;;16.40;76.97;96814.25;4852319;29;20562;-75
2022/07/11 04:22:16;;;;;;;4.25;3.95;;;;;;;16.66;76.42;96820.44;4852164;29;20054;-75
2022/07/11 04:24:43;;;;;;;4.45;3.78;;;;;;;16.90;76.04;96819.38;4836153;29;20064;-75
2022/07/11 04:27:10;;;;;;;5.78;3.95;;;;;;;17.10;72.97;96811.94;4870896;29;20061;-75
2022/07/11 04:29:37;;;;;;;7.32;3.90;;;;;;;16.59;73.59;96704.63;4870746;29;20058;-67
2022/07/11 04:32:05;;;;;;;5.88;4.35;;;;;;;16.45;75.57;96699.19;4870972;29;20053;-68
2022/07/11 04:34:33;;;;;;;6.03;4.47;;;;;;;16.68;76.09;96734.09;4853884;29;20611;-68
2022/07/11 04:37:00;;;;;;;6.40;4.47;;;;;;;17.45;76.19;96822.72;4870529;29;20061;-68
2022/07/11 04:39:27;;;;;;;6.03;4.10;;;;;;;17.65;76.35;96820.81;4870837;29;20156;-67
2022/07/11 04:41:54;;;;;;;6.25;5.28;;;;;;;17.89;75.60;96819.66;4854084;29;20449;-67
2022/07/11 04:44:21;;;;;;;3.58;3.38;;;;;;;18.03;71.87;96825.06;4871132;29;20509;-74
2022/07/11 04:46:49;;;;;;;3.22;3.03;;;;;;;18.21;71.65;96833.97;4869991;29;20064;-67
2022/07/11 04:49:16;;;;;;;16.13;5.25;;;;;;;18.33;71.71;96827.78;4851898;29;20568;-67
2022/07/11 04:51:43;;;;;;;6.18;4.35;;;;;;;17.89;75.71;96836.50;4835345;29;20153;-74
2022/07/11 04:54:11;;;;;;;6.03;4.70;;;;;;;18.16;75.91;96828.84;4851791;29;20604;-74
2022/07/11 04:56:38;;;;;;;6.07;4.28;;;;;;;17.63;74.61;96694.38;4835103;29;20127;-68
2022/07/11 04:59:05;;;;;;;5.72;3.75;;;;;;;18.68;74.07;96821.56;4834802;29;20061;-67
2022/07/11 05:02:01;;;;;;;12.95;4.60;;;;;;;18.91;72.88;96815.13;4852025;29;20075;-75
2022/07/11 05:29:01;;;;;;;3.38;3.10;;;;;;;19.64;58.07;96778.31;4871562;29;20052;-68
2022/07/11 05:31:29;;;;;;;3.42;3.22;;;;;;;20.18;54.74;96822.44;4857141;29;20115;-77
2022/07/11 05:33:56;;;;;;;7.00;3.28;;;;;;;20.37;55.17;96829.22;4873919;29;20144;-68
2022/07/11 05:36:23;;;;;;;3.13;2.90;;;;;;;20.50;56.33;96822.41;4873380;29;20916;-76
2022/07/11 05:38:51;;;;;;;7.65;3.55;;;;;;;20.67;54.89;96815.56;4873928;29;20556;-68
2022/07/11 05:41:18;;;;;;;7.13;3.53;;;;;;;20.86;53.94;96813.84;4863030;29;21158;-73
2022/07/11 06:37:32;;;;;;;3.75;3.55;;;;;;;23.34;41.52;96831.81;4852703;29;20137;-77
2022/07/11 06:39:59;;;;;;;3.22;3.03;;;;;;;23.62;40.43;96830.78;4849967;29;20059;-77
2022/07/11 06:42:26;;;;;;;3.90;3.70;;;;;;;23.71;39.74;96825.97;4851931;29;20069;-69
2022/07/11 06:44:54;;;;;;;6.18;3.83;;;;;;;22.87;37.96;96670.06;4869329;29;20072;-73
2022/07/11 06:47:20;;;;;;;3.67;3.40;;;;;;;22.65;37.76;96635.38;4872650;29;20088;-71
2022/07/11 06:49:47;;;;;;;4.05;3.72;;;;;;;23.66;37.47;96840.69;4871861;29;20063;-73
2022/07/11 06:52:14;;;;;;;3.58;3.38;;;;;;;23.71;38.71;96836.50;4861447;29;20056;-75
2022/07/11 06:54:41;;;;;;;4.10;3.90;;;;;;;23.09;40.62;96767.72;4859211;29;20065;-74
2022/07/11 06:57:08;;;;;;;4.60;4.10;;;;;;;23.87;39.85;96839.09;4867765;29;20068;-66
2022/07/11 06:59:38;;;;;;;4.30;4.03;;;;;;;24.02;40.49;96851.50;4853380;29;20092;-71
2022/07/11 07:02:04;;;;;;;4.75;4.03;;;;;;;24.07;40.52;96845.22;4865812;29;20057;-72
2022/07/11 07:04:31;;;;;;;4.30;4.00;;;;;;;24.21;40.57;96856.00;4866588;29;20527;-66
2022/07/11 07:06:59;;;;;;;3.97;3.88;;;;;;;24.12;39.51;96805.00;4859137;29;20048;-67
2022/07/11 07:09:26;;;;;;;4.13;3.90;;;;;;;23.72;38.90;96750.38;4870348;29;20065;-72
2022/07/11 08:11:40;;;;;;;3.95;3.75;;;;;;;25.42;33.60;96846.88;5025541;23;20119;-69
2022/07/11 08:14:15;;;;;;;4.78;4.57;;;;;;;25.03;34.31;96806.84;4854670;29;20543;-78
2022/07/11 12:36:18;;;;;;;5.00;4.65;;;;;;;28.43;31.43;96839.28;4899171;29;20066;-66
2022/07/11 12:38:53;;;;;;;4.90;4.57;;;;;;;28.65;30.90;96838.84;4968193;28;20061;-76
2022/07/11 12:41:38;;;;;;;5.80;5.38;;;;;;;30.55;29.20;96840.16;5015047;28;20444;-71
2022/07/11 12:56:50;;;;;;;5.18;4.78;;;;;;;28.20;31.94;96853.63;4999489;28;20111;-76
2022/07/11 13:17:17;;;;;;;5.10;4.80;;;;;;;28.71;33.19;96859.69;4942895;28;20055;-68
2022/07/11 13:19:44;;;;;;;5.70;5.03;;;;;;;27.93;33.31;96838.41;4946900;28;20604;-69
2022/07/11 13:33:32;;;;;;;6.90;4.43;;;;;;;26.24;35.63;96817.09;4877948;29;20056;-64
2022/07/11 13:36:00;;;;;;;4.32;4.10;;;;;;;26.38;36.26;96859.03;4959992;28;20054;-69
2022/07/11 13:38:47;;;;;;;4.95;4.28;;;;;;;25.82;37.65;96861.66;4890754;29;20071;-74
2022/07/11 13:48:25;;;;;;;4.60;4.30;;;;;;;25.72;36.58;96811.88;4877140;29;20088;-67
2022/07/11 13:51:36;;;;;;;;;;;;;;;;;;;;;
2022/07/11 13:55:29;;;;;;;;;;;;;;;;;;;;;
2022/07/11 13:58:25;;;;;;;5.03;4.70;;;;;;;26.48;36.93;96858.50;4790025;29;20539;-68
2022/07/11 14:15:51;;;;;;;5.20;5.00;;;;;;;27.18;34.75;96865.56;4671865;30;20627;-73
2022/07/11 14:18:17;;;;;;;5.60;5.10;;;;;;;27.97;34.92;96872.38;4669278;30;20582;-67
2022/07/11 14:36:08;;;;;;;5.35;4.93;;;;;;;29.40;31.89;96814.78;4896521;29;20086;-72
2022/07/11 14:39:38;;;;;;;;;;;;;;;;;;;;;
2022/07/11 14:43:31;;;;;;;;;;;;;;;;;;;;;
2022/07/11 14:52:21;;;;;;;5.10;4.80;;;;;;;29.58;30.78;96830.81;4965904;28;20245;-70
2022/07/11 14:55:05;;;;;;;5.32;5.07;;;;;;;30.26;30.75;96856.78;4926358;28;20050;-71
2022/07/11 14:57:33;;;;;;;5.13;4.93;;;;;;;30.40;30.89;96859.50;4954392;28;20142;-64
2022/07/11 15:00:04;;;;;;;5.15;4.75;;;;;;;30.02;30.67;96825.59;4953614;28;20061;-64
2022/07/11 15:05:16;;;;;;;5.05;4.80;;;;;;;29.25;31.32;96864.66;4961746;28;20054;-64
2022/07/11 15:13:21;;;;;;;5.15;4.80;;;;;;;29.58;30.84;96825.91;4951749;28;20094;-64
2022/07/11 15:15:48;;;;;;;5.57;5.07;;;;;;;30.01;30.25;96852.63;4955983;28;20054;-64
2022/07/11 15:18:15;;;;;;;5.03;4.68;;;;;;;30.14;29.99;96869.38;4951607;28;20055;-69
2022/07/11 15:20:42;;;;;;;5.70;5.50;;;;;;;29.28;29.89;96749.50;4956051;28;20058;-69
2022/07/11 15:23:08;;;;;;;6.30;5.85;;;;;;;29.41;30.45;96829.84;4951248;28;20059;-64
2022/07/11 15:25:36;;;;;;;5.20;5.00;;;;;;;28.98;30.50;96799.41;4956100;28;20157;-64
2022/07/11 15:28:03;;;;;;;5.35;5.15;;;;;;;29.19;30.30;96758.22;4951247;28;20509;-70
2022/07/11 15:30:29;;;;;;;5.38;5.18;;;;;;;29.73;29.43;96734.44;4955699;28;20058;-64
2022/07/11 15:32:56;;;;;;;5.90;5.50;;;;;;;29.21;30.39;96767.84;4951470;28;20055;-69
2022/07/11 15:35:23;;;;;;;5.63;5.22;;;;;;;29.35;30.95;96883.22;4955303;28;20062;-70
2022/07/11 15:37:50;;;;;;;4.85;4.65;;;;;;;28.94;31.06;96841.63;4951243;28;20063;-69
2022/07/11 15:40:18;;;;;;;5.32;4.90;;;;;;;29.87;30.49;96873.50;4953588;28;20149;-64
2022/07/11 15:42:45;;;;;;;5.47;5.07;;;;;;;28.75;30.89;96740.50;4952262;28;20051;-70
2022/07/11 15:45:12;;;;;;;5.45;5.15;;;;;;;29.46;30.30;96823.41;4953404;28;20050;-64
2022/07/11 15:47:39;;;;;;;5.32;4.93;;;;;;;29.99;29.85;96889.47;4952139;28;20066;-69
2022/07/11 15:50:07;;;;;;;11.07;9.93;;;;;;;29.67;30.68;96884.94;4953210;28;20054;-65
2022/07/11 15:52:34;;;;;;;5.53;5.28;;;;;;;30.11;29.61;96813.22;4953371;28;20514;-69
2022/07/11 15:55:01;;;;;;;5.70;5.40;;;;;;;30.00;29.19;96756.78;4952049;28;20050;-70
2022/07/11 15:57:28;;;;;;;5.68;5.28;;;;;;;29.25;30.25;96805.53;4941381;28;20063;-69
2022/07/11 15:59:55;;;;;;;6.53;6.13;;;;;;;28.79;31.15;96838.03;4953856;28;20066;-66
2022/07/11 16:02:22;;;;;;;5.22;4.80;;;;;;;28.44;31.98;96862.88;4955042;28;20051;-69
2022/07/11 16:04:49;;;;;;;5.20;4.95;;;;;;;28.48;32.26;96904.16;4949628;28;20082;-64
2022/07/11 16:07:16;;;;;;;6.20;5.07;;;;;;;26.99;33.67;96872.63;4955893;28;20485;-64
2022/07/11 16:09:43;;;;;;;5.07;4.68;;;;;;;27.34;34.12;96901.38;4949334;28;20090;-64
2022/07/11 16:12:10;;;;;;;5.13;4.82;;;;;;;27.96;32.50;96851.66;4956111;28;20072;-70
2022/07/11 16:14:36;;;;;;;5.68;5.28;;;;;;;26.52;32.65;96628.19;4949365;28;20078;-63
2022/07/11 16:17:04;;;;;;;5.63;5.22;;;;;;;27.88;32.43;96870.41;4956596;28;20058;-70
2022/07/11 16:19:32;;;;;;;9.32;6.90;;;;;;;28.21;32.90;96915.03;4947626;28;20095;-69
2022/07/11 16:21:59;;;;;;;5.35;4.95;;;;;;;28.14;32.85;96911.31;4960019;28;20138;-63
2022/07/11 16:24:27;;;;;;;6.75;5.65;;;;;;;28.57;32.33;96906.91;4947397;28;20120;-70
2022/07/11 16:26:53;;;;;;;5.53;5.18;;;;;;;28.11;32.96;96915.13;4956663;28;20474;-72
2022/07/11 16:29:20;;;;;;;5.28;4.88;;;;;;;27.50;33.47;96915.97;4929589;28;20067;-64
2022/07/11 16:31:47;;;;;;;5.43;5.05;;;;;;;28.61;32.44;96918.13;4956595;28;20066;-70
2022/07/11 16:34:14;;;;;;;5.70;5.05;;;;;;;28.57;32.09;96849.09;4947468;28;20059;-64
2022/07/11 16:36:40;;;;;;;4.65;4.35;;;;;;;28.13;32.38;96889.81;4938504;28;20055;-70
2022/07/11 16:44:38;;;;;;;6.25;5.60;;;;;;;28.82;32.03;96926.25;4948129;28;20058;-64
2022/07/11 16:47:04;;;;;;;5.20;4.90;;;;;;;28.57;31.81;96926.06;4955699;28;20058;-64
2022/07/11 16:49:31;;;;;;;5.07;4.78;;;;;;;27.07;31.50;96603.69;4947442;28;20067;-69
2022/07/11 16:51:58;;;;;;;5.25;4.95;;;;;;;28.34;31.84;96901.28;4956922;28;20242;-69
2022/07/11 16:54:25;;;;;;;5.15;4.85;;;;;;;28.70;31.37;96927.34;4946894;28;20526;-70
2022/07/11 16:56:52;;;;;;;6.85;4.93;;;;;;;28.44;31.66;96936.97;4938649;28;20062;-63
2022/07/11 16:59:19;;;;;;;6.20;5.18;;;;;;;28.23;31.81;96932.44;4947831;28;20055;-69
2022/07/11 17:01:45;;;;;;;5.28;4.88;;;;;;;27.36;31.92;96788.63;4938770;28;20518;-63
2022/07/11 17:04:12;;;;;;;6.00;5.50;;;;;;;26.46;32.51;96706.84;4947408;28;20059;-64
2022/07/11 17:06:39;;;;;;;5.22;4.93;;;;;;;28.30;32.27;96949.13;4954834;28;20063;-64
2022/07/11 17:09:07;;;;;;;6.60;5.00;;;;;;;26.20;34.59;96870.44;4948414;28;20071;-69
2022/07/11 17:11:34;;;;;;;6.40;5.90;;;;;;;26.42;34.81;96948.50;4954917;28;20059;-64
2022/07/11 17:14:01;;;;;;;5.00;4.70;;;;;;;26.02;34.80;96898.88;4948845;28;20066;-70
2022/07/11 17:16:30;;;;;;;5.07;4.65;;;;;;;26.41;34.69;96960.34;4954474;28;20067;-71
2022/07/11 17:18:57;;;;;;;4.57;4.28;;;;;;;26.03;35.06;96928.84;4949138;28;20161;-64
2022/07/11 17:21:26;;;;;;;4.93;4.63;;;;;;;24.95;36.20;96873.59;4954109;28;20070;-71
2022/07/11 17:23:53;;;;;;;4.50;4.30;;;;;;;25.08;37.17;96970.63;4949175;28;20070;-64
2022/07/11 17:26:24;;;;;;;4.40;4.10;;;;;;;24.03;37.82;96892.69;4936456;28;20111;-64
2022/07/11 17:28:51;;;;;;;4.20;3.90;;;;;;;24.19;38.60;96968.91;4948787;28;20059;-64
2022/07/11 17:35:11;;;;;;;;;;;;;;;;;;;;;
2022/07/11 17:38:45;;;;;;;10.05;7.13;;;;;;;23.26;40.75;96985.97;4948818;28;20094;-64
2022/07/11 18:10:37;;;;;;;3.80;3.50;;;;;;;21.66;45.84;97022.22;4863116;29;20084;-73
2022/07/11 18:14:09;;;;;;;5.78;3.40;;;;;;;21.58;46.01;97031.31;4855856;29;20292;-66
2022/07/11 18:44:49;;;;;;;4.43;3.47;;;;;;;20.39;51.18;97085.63;4947288;28;20216;-66
2022/07/11 18:51:59;;;;;;;;;;;;;;;;;;;;;
2022/07/11 19:28:42;;;;;;;;;;;;;;;;;;;;;
2022/07/11 19:35:30;;;;;;;3.72;2.88;;;;;;;18.84;59.32;97150.06;4836355;29;20541;-73
2022/07/11 20:01:51;;;;;;;3.00;2.75;;;;;;;18.33;61.94;97169.94;4968541;28;20901;-72
2022/07/11 20:20:08;;;;;;;3.50;3.20;;;;;;;18.24;62.45;97172.41;4946904;28;20554;-72
2022/07/11 20:22:46;;;;;;;3.28;2.88;;;;;;;18.27;62.34;97171.59;4947128;28;20063;-71
2022/07/11 20:26:05;;;;;;;4.95;3.08;;;;;;;18.27;61.89;97174.41;4961069;28;20548;-64
2022/07/11 20:35:14;;;;;;;4.22;2.83;;;;;;;17.86;63.58;97179.25;4834805;29;20146;-64
2022/07/11 20:37:42;;;;;;;4.33;3.20;;;;;;;17.71;64.81;97183.38;4842679;29;20104;-64
2022/07/11 20:40:23;;;;;;;2.92;2.72;;;;;;;17.58;65.89;97191.47;4940804;28;20310;-65
2022/07/11 20:42:52;;;;;;;4.85;3.38;;;;;;;17.48;66.92;97197.16;4950207;28;20178;-64
2022/07/11 20:45:20;;;;;;;5.18;2.70;;;;;;;17.43;66.66;97192.78;4953392;28;20051;-64
2022/07/11 20:47:47;;;;;;;3.28;2.92;;;;;;;17.31;66.72;97192.47;4951559;28;20474;-65
2022/07/11 20:50:15;;;;;;;2.90;2.70;;;;;;;17.04;66.63;97147.44;4952410;28;20054;-64
2022/07/11 20:52:41;;;;;;;3.45;2.70;;;;;;;17.00;67.35;97148.66;4951231;28;20542;-64
2022/07/11 20:55:16;;;;;;;7.07;3.22;;;;;;;17.21;67.04;97198.94;4953561;28;20393;-72
2022/07/11 20:57:46;;;;;;;4.10;3.20;;;;;;;17.06;67.41;97186.22;4955963;28;20074;-64
2022/07/11 21:00:14;;;;;;;6.25;2.88;;;;;;;17.15;67.43;97201.34;4952210;28;20054;-65
2022/07/11 21:02:41;;;;;;;2.72;2.53;;;;;;;17.03;68.31;97201.03;4951526;28;20149;-65
2022/07/11 21:05:08;;;;;;;6.78;2.80;;;;;;;17.00;68.31;97204.63;4952230;28;20062;-72
2022/07/11 21:07:35;;;;;;;2.95;2.72;;;;;;;17.04;67.72;97205.44;4951651;28;20144;-73
2022/07/11 21:10:03;;;;;;;3.15;2.67;;;;;;;16.78;67.06;97180.78;4951645;28;20054;-64
2022/07/11 21:12:30;;;;;;;2.90;2.63;;;;;;;17.02;67.23;97199.44;4952652;28;20470;-70
2022/07/11 21:15:00;;;;;;;3.25;3.00;;;;;;;17.08;66.74;97245.38;4950252;28;20058;-70
2022/07/11 21:17:37;;;;;;;2.63;2.42;;;;;;;16.32;67.17;97092.28;4953894;28;20067;-72
2022/07/11 21:20:05;;;;;;;4.93;3.17;;;;;;;17.10;67.85;97204.59;4944751;28;20405;-64
2022/07/11 21:22:32;;;;;;;3.83;3.05;;;;;;;16.60;66.53;97117.31;4934503;29;20068;-64
2022/07/11 21:24:59;;;;;;;3.22;2.70;;;;;;;16.60;68.16;97108.94;4930525;29;20063;-64
2022/07/11 21:27:26;;;;;;;3.95;2.72;;;;;;;17.27;67.06;97205.69;4937826;29;20060;-65
2022/07/11 21:29:53;;;;;;;3.92;3.00;;;;;;;17.28;67.13;97204.47;4930634;29;20102;-64
2022/07/11 21:32:20;;;;;;;3.92;3.00;;;;;;;17.34;66.95;97197.25;4936682;29;20074;-72
2022/07/11 21:34:50;;;;;;;3.40;2.63;;;;;;;17.22;66.52;97200.50;4929875;29;20465;-65
2022/07/11 21:37:17;;;;;;;3.25;2.85;;;;;;;17.18;67.09;97213.75;4939695;29;20089;-65
2022/07/11 21:39:44;;;;;;;4.88;2.65;;;;;;;17.21;67.22;97210.13;4929450;29;20098;-71
2022/07/11 21:46:34;;;;;;;4.43;3.00;;;;;;;17.05;66.47;97213.41;4842325;29;20617;-64
2022/07/11 22:00:59;;;;;;;6.30;3.28;;;;;;;16.90;69.02;97227.91;4843348;29;20073;-65
2022/07/11 22:04:18;;;;;;;2.92;2.72;;;;;;;16.89;68.32;97231.88;4852245;29;20465;-64
2022/07/11 22:07:23;;;;;;;;;;;;;;;;;;;;;
2022/07/11 22:10:22;;;;;;;3.00;2.70;;;;;;;16.63;68.65;97224.78;4809729;29;20094;-71
2022/07/11 22:13:05;;;;;;;2.72;2.53;;;;;;;16.68;68.76;97237.59;4777200;29;20533;-64
2022/07/11 22:15:35;;;;;;;3.17;2.88;;;;;;;16.37;68.31;97198.09;4833872;29;20057;-72
2022/07/11 22:18:05;;;;;;;3.53;2.60;;;;;;;16.58;68.43;97234.41;4898750;29;20055;-71
2022/07/11 22:20:32;;;;;;;2.80;2.60;;;;;;;15.94;67.74;97149.09;4932320;28;20161;-64
2022/07/11 22:22:59;;;;;;;3.38;3.08;;;;;;;16.19;69.60;97202.94;4935326;28;20067;-70
2022/07/11 22:25:37;;;;;;;2.88;2.67;;;;;;;15.98;69.43;97154.69;4953914;28;20054;-72
2022/07/11 22:28:07;;;;;;;4.10;3.30;;;;;;;16.58;69.68;97240.00;4950116;28;20091;-71
2022/07/11 22:30:40;;;;;;;3.03;2.72;;;;;;;16.46;70.08;97236.84;4940242;28;20075;-64
2022/07/11 22:33:10;;;;;;;4.45;3.35;;;;;;;14.96;74.54;97093.31;4953460;28;20054;-71
2022/07/11 22:35:37;;;;;;;3.40;2.92;;;;;;;16.12;73.98;97239.28;4957648;28;20652;-71
2022/07/11 22:38:58;;;;;;;3.50;3.20;;;;;;;16.12;74.18;97239.28;4952149;28;20059;-64
2022/07/11 22:41:17;;;;;;;6.68;3.17;;;;;;;15.81;74.57;97195.41;4948344;28;20102;-70
2022/07/11 22:43:53;;;;;;;3.10;2.90;;;;;;;16.10;72.27;97255.66;4952267;28;20055;-71
2022/07/11 22:46:20;;;;;;;3.55;2.78;;;;;;;16.13;72.15;97246.47;4956515;28;20144;-65
2022/07/11 22:49:14;;;;;;;3.20;2.90;;;;;;;15.95;71.72;97244.91;4948876;28;20065;-71
2022/07/11 22:52:06;;;;;;;3.58;2.65;;;;;;;15.93;71.63;97242.50;4957433;28;20486;-72
2022/07/11 22:54:58;;;;;;;2.50;2.40;;;;;;;16.06;71.05;97245.69;4954596;28;20074;-72
2022/07/11 22:57:45;;;;;;;4.63;2.92;;;;;;;16.03;71.53;97255.66;4958031;28;20442;-64
2022/07/11 23:00:12;;;;;;;6.22;2.58;;;;;;;16.05;70.66;97238.50;4954104;28;20121;-71
2022/07/11 23:02:39;;;;;;;3.05;2.85;;;;;;;15.72;70.88;97213.78;4946077;28;20062;-65
2022/07/11 23:05:10;;;;;;;2.88;2.67;;;;;;;15.75;71.20;97252.88;4954137;28;20061;-64
2022/07/11 23:07:37;;;;;;;3.35;3.05;;;;;;;15.72;71.53;97242.50;4954097;28;20105;-64
2022/07/11 23:10:04;;;;;;;3.58;2.58;;;;;;;15.29;72.20;97187.81;4936454;28;20061;-71
2022/07/11 23:12:32;;;;;;;2.50;2.30;;;;;;;15.76;72.13;97245.31;4953397;28;20063;-70
2022/07/11 23:14:59;;;;;;;4.63;2.53;;;;;;;15.42;71.61;97200.22;4953181;28;20066;-70
2022/07/11 23:17:26;;;;;;;2.78;2.58;;;;;;;15.71;71.86;97246.47;4954732;28;20118;-65